Dayton Valley, NV

5:14 AM PDT on September 21, 2014 (GMT -0700)
Fairway 8 Dayton Valley | Change Station
CLOSE
Current Station
Personal Weather Station
Location: Dayton, NV
Elevation: 4360 ft
Nearby Weather Stations

Elev 4360 ft 39.25 °N, 119.55 °W | Updated 3 seconds ago

Overcast
Overcast
63.2 °F
Feels Like 63.2 °F
N
0.0
Wind Variable Wind from East
Gusts 0.0 mph

Today
High -- | Low -- °F
--% Chance of Precip.
Yesterday
High -- | Low -- °F
Precip. -- in
6:45 AM 6:56 PM
Waning Crescent, 7% visible
Pressure 30.10 in
Visibility 10.0 miles
Clouds Scattered Clouds 5500 ft
Mostly Cloudy 10000 ft
Dew Point 46 °F
Humidity 54%
Rainfall 0.00 in
Snow Depth 0 in , 0 in , 0 in
UV 0 out of 12
Pollen 6.20 out of 12
Air Quality Not available.
Flu Activity Not available.
METAR KCXP 211215Z AUTO 03003KT 10SM SCT055 BKN100 17/08 A3010 RMK AO2

More Conditions Fewer Conditions

Pressure 30.10 in
Visibility 10.0 miles
Clouds Scattered Clouds 5500 ft
Mostly Cloudy 10000 ft
Dew Point 46 °F
Humidity 54%
Rainfall 0.00 in
Snow Depth 0 in , 0 in , 0 in
UV 0 out of 12
Pollen 6.20 out of 12
Air Quality Not available.
Flu Activity Not available.
METAR KCXP 211215Z AUTO 03003KT 10SM SCT055 BKN100 17/08 A3010 RMK AO2

More Conditions Fewer Conditions

10-Day Weather Forecast

Almanac

Astronomy

Sep. 21, 2014 Rise Set
Actual Time 6:45 AM PDT 6:56 PM PDT
Civil Twilight 6:18 AM PDT 7:23 PM PDT
Nautical Twilight 5:46 AM PDT 7:54 PM PDT
Astronomical Twilight 5:15 AM PDT 8:26 PM PDT
Moon 4:23 AM PDT 5:34 PM PDT
Length of Visible Light 13h 05m
Length of Day
12h 11m
Tomorrow will be 2m 32s shorter.
Waning Crescent, 7% of the Moon is Illuminated
Today
Waning Crescent
Sep 24
New
Oct 1
First Quarter
Oct 8
Full
Oct 15
Last Quarter

Today's Extremes

State Highs State Lows

Community

WunderPhotos

Upload Photos

1,755,126 photos uploaded!

Nearby

Snow Depth

Station Depth Elevation
Lamance Creek 1 in 6000 ft
Marlette Lake 0 in 8000 ft
Draw Creek 0 in 7200 ft
Ward Mountain 0 in 9200 ft
Taylor Canyon 1 in 6200 ft

Earthquake Activity

City Distance Mag. Time & Date
Gabbs, Nevada 79 miles 3.3 4:37 AM PDT
2014-09-19
Minimum magnitude displayed is 2.5.

Coastal Water Temperatures

Place Temperature
No Stations Reporting

Nearby Weather Stations